Time;durP1;ratioP1;P1;durP2;ratioP2;P2;SDS_P1;SDS_P2;PMS_P1;PMS_P2;Temp;Humidity;BMP_temperature;BMP_pressure;BME280_temperature;BME280_humidity;BME280_pressure;Samples;Min_cycle;Max_cycle;Signal;HPM_P1;HPM_P2
2021/12/19 00:00:47;;;;;;;;;;;;;;;5.29;91.62;101053.91;103826;1303;91473;-58
2021/12/19 00:03:34;;;;;;;5.20;1.00;;;;;;;5.29;91.52;101044.02;102719;1316;22636;-59
2021/12/19 00:08:54;;;;;;;3.40;1.00;;;;;;;5.31;91.44;101030.94;103112;1320;22689;-60
2021/12/19 00:11:26;;;;;;;4.60;1.20;;;;;;;5.32;91.49;101022.05;102897;1316;22596;-59
2021/12/19 00:13:58;;;;;;;7.60;1.40;;;;;;;5.33;91.57;101016.34;102610;1317;22590;-59
2021/12/19 00:16:29;;;;;;;8.10;1.60;;;;;;;5.33;91.54;101006.52;102625;1313;22672;-60
2021/12/19 00:19:01;;;;;;;5.70;1.40;;;;;;;5.33;91.55;101005.42;102561;1319;24248;-59
2021/12/19 00:21:32;;;;;;;7.30;1.40;;;;;;;5.35;91.55;101006.11;102570;1315;25426;-59
2021/12/19 00:24:05;;;;;;;7.30;1.10;;;;;;;5.36;91.55;101003.23;102816;1313;25413;-60
2021/12/19 00:26:36;;;;;;;7.20;1.50;;;;;;;5.37;91.55;100997.13;102773;1319;24308;-59
2021/12/19 00:29:07;;;;;;;4.40;1.00;;;;;;;5.38;91.65;100995.44;102797;1312;22578;-60
2021/12/19 00:31:39;;;;;;;5.20;1.20;;;;;;;5.38;91.69;100986.19;102782;1315;25425;-60
2021/12/19 00:34:10;;;;;;;6.80;1.50;;;;;;;5.39;91.82;100984.18;102792;1316;22641;-59
2021/12/19 00:36:41;;;;;;;7.90;1.40;;;;;;;5.39;91.84;100978.02;102708;1316;22593;-60
2021/12/19 00:39:12;;;;;;;8.00;1.40;;;;;;;5.39;91.87;100970.34;102756;1320;22577;-59
2021/12/19 00:41:44;;;;;;;7.90;1.40;;;;;;;5.40;91.94;100969.86;102694;1316;25506;-60
2021/12/19 00:44:22;;;;;;;6.80;1.60;;;;;;;5.40;91.95;100967.86;102779;1313;22681;-60
2021/12/19 00:47:04;;;;;;;5.60;1.20;;;;;;;5.41;92.16;100964.85;102713;1313;22980;-59
2021/12/19 00:49:35;;;;;;;7.50;1.40;;;;;;;5.40;92.02;100967.86;102754;1312;25316;-60
2021/12/19 00:52:07;;;;;;;6.90;1.50;;;;;;;5.41;92.20;100965.71;102651;1313;25178;-60
2021/12/19 00:54:38;;;;;;;9.00;2.50;;;;;;;5.41;92.22;100968.31;102853;1317;25394;-60
2021/12/19 00:57:09;;;;;;;6.60;1.60;;;;;;;5.43;92.20;100962.90;102888;1320;22651;-59
2021/12/19 00:59:40;;;;;;;8.00;2.10;;;;;;;5.44;92.29;100963.11;102917;1320;25703;-59
2021/12/19 01:02:10;;;;;;;10.00;2.10;;;;;;;5.45;92.23;100955.83;102679;1317;22589;-60
2021/12/19 01:04:42;;;;;;;9.60;2.00;;;;;;;5.46;92.28;100947.16;102809;1312;25396;-59
2021/12/19 01:07:13;;;;;;;8.50;2.00;;;;;;;5.48;92.18;100955.77;102780;1312;22574;-60
2021/12/19 01:09:44;;;;;;;10.00;3.10;;;;;;;5.49;92.30;100956.77;102854;1312;23085;-60
2021/12/19 01:12:15;;;;;;;11.60;2.50;;;;;;;5.51;92.39;100949.28;102843;1312;22563;-60
2021/12/19 01:14:46;;;;;;;9.90;2.10;;;;;;;5.52;92.36;100947.52;102861;1315;22562;-60
2021/12/19 01:17:17;;;;;;;10.80;2.70;;;;;;;5.54;92.25;100936.89;102854;1312;25306;-60
2021/12/19 01:19:48;;;;;;;13.10;3.30;;;;;;;5.55;92.24;100921.80;102895;1313;24317;-59
2021/12/19 01:22:19;;;;;;;13.80;3.60;;;;;;;5.57;92.28;100910.95;102821;1312;24218;-60
2021/12/19 01:24:50;;;;;;;10.50;2.70;;;;;;;5.57;92.38;100901.05;102730;1315;24251;-60
2021/12/19 01:27:22;;;;;;;14.10;2.70;;;;;;;5.58;92.39;100901.34;102853;1317;25393;-59
2021/12/19 01:29:52;;;;;;;15.60;3.40;;;;;;;5.58;92.37;100901.41;102875;1317;22577;-60
2021/12/19 01:32:24;;;;;;;15.40;4.00;;;;;;;5.61;92.43;100898.20;102797;1312;24221;-59
2021/12/19 01:34:55;;;;;;;12.60;3.10;;;;;;;5.61;92.44;100896.84;102857;1312;23107;-60
2021/12/19 01:37:26;;;;;;;11.10;2.90;;;;;;;5.61;92.56;100884.48;102894;1312;25233;-60
2021/12/19 01:39:56;;;;;;;9.20;3.10;;;;;;;5.61;92.66;100889.78;102745;1313;25560;-59
2021/12/19 01:42:35;;;;;;;10.40;2.80;;;;;;;5.63;92.64;100887.06;102883;1312;22669;-58
2021/12/19 01:45:11;;;;;;;9.90;2.40;;;;;;;5.63;92.67;100886.58;103046;1316;25354;-61
2021/12/19 01:47:43;;;;;;;12.10;3.50;;;;;;;5.64;92.74;100882.36;102814;1319;25396;-61
2021/12/19 01:50:13;;;;;;;11.30;3.40;;;;;;;5.65;92.76;100887.27;102785;1313;24285;-61
2021/12/19 01:52:45;;;;;;;11.90;3.40;;;;;;;5.66;92.74;100882.33;102840;1313;25234;-59
2021/12/19 01:55:16;;;;;;;16.70;4.20;;;;;;;5.66;92.94;100881.34;102915;1315;25502;-60
2021/12/19 01:57:47;;;;;;;12.10;3.80;;;;;;;5.68;93.03;100878.40;102762;1318;22554;-59
2021/12/19 02:00:25;;;;;;;15.60;5.30;;;;;;;5.70;92.86;100872.19;102789;1317;22555;-61
2021/12/19 02:02:58;;;;;;;13.30;4.70;;;;;;;5.70;92.78;100865.14;102974;1318;22637;-61
2021/12/19 02:05:30;;;;;;;13.30;4.10;;;;;;;5.72;92.80;100863.42;103297;1318;25255;-61
2021/12/19 02:08:03;;;;;;;13.10;4.60;;;;;;;5.73;92.82;100858.02;102870;1312;22682;-59
2021/12/19 02:10:35;;;;;;;18.40;5.20;;;;;;;5.74;92.85;100854.43;102934;1312;24330;-63
2021/12/19 02:13:08;;;;;;;16.30;5.80;;;;;;;5.75;92.98;100849.19;102858;1312;22616;-59
2021/12/19 02:15:40;;;;;;;18.20;5.50;;;;;;;5.76;92.80;100841.27;102958;1312;22956;-58
2021/12/19 02:18:15;;;;;;;13.50;4.10;;;;;;;5.77;92.82;100834.28;103054;1319;24227;-60
2021/12/19 02:20:50;;;;;;;16.40;4.60;;;;;;;5.77;92.82;100828.17;103247;1318;22558;-59
2021/12/19 02:23:22;;;;;;;13.90;4.70;;;;;;;5.79;92.85;100817.60;103054;1313;22595;-60
2021/12/19 02:25:54;;;;;;;14.90;4.80;;;;;;;5.80;92.78;100805.15;102780;1312;22552;-59
2021/12/19 02:28:26;;;;;;;15.00;4.80;;;;;;;5.81;92.85;100796.33;102863;1313;25235;-58
2021/12/19 02:30:58;;;;;;;11.80;3.60;;;;;;;5.82;92.79;100785.77;102800;1317;24315;-60
2021/12/19 02:33:37;;;;;;;17.20;4.40;;;;;;;5.83;92.64;100777.83;102867;1318;24153;-60
2021/12/19 02:36:22;;;;;;;15.50;4.90;;;;;;;5.85;92.55;100775.04;102759;1312;24224;-59
2021/12/19 02:39:32;;;;;;;15.50;4.20;;;;;;;5.86;92.57;100765.27;102761;1319;22641;-60
2021/12/19 02:50:30;;;;;;;14.30;3.90;;;;;;;5.90;92.47;100741.19;102882;1319;23177;-60
2021/12/19 02:53:01;;;;;;;9.20;2.40;;;;;;;5.91;92.51;100724.70;102814;1312;22672;-59
2021/12/19 02:55:32;;;;;;;13.80;3.20;;;;;;;5.92;92.46;100723.64;102847;1316;22668;-61
2021/12/19 02:58:04;;;;;;;13.90;3.30;;;;;;;5.93;92.41;100720.86;102802;1312;23986;-59
2021/12/19 03:00:35;;;;;;;12.20;3.50;;;;;;;5.94;92.30;100716.33;102849;1315;24317;-59
2021/12/19 03:03:07;;;;;;;11.50;2.90;;;;;;;5.95;92.19;100714.30;102973;1312;25184;-61
2021/12/19 03:05:38;;;;;;;15.80;3.60;;;;;;;5.98;92.07;100716.35;102800;1315;22590;-60
2021/12/19 03:08:10;;;;;;;10.80;3.00;;;;;;;6.00;91.94;100711.95;102812;1315;25307;-59
2021/12/19 03:11:13;;;;;;;14.40;4.40;;;;;;;6.02;91.92;100705.34;102858;1320;22685;-60
2021/12/19 03:19:16;;;;;;;13.30;3.50;;;;;;;6.05;91.77;100689.80;102790;1313;24304;-61
2021/12/19 03:21:48;;;;;;;12.10;4.20;;;;;;;6.06;91.71;100692.48;102721;1317;22639;-61
2021/12/19 03:24:18;;;;;;;12.50;4.20;;;;;;;6.07;91.57;100685.87;102870;1312;22656;-59
2021/12/19 03:26:49;;;;;;;13.90;4.10;;;;;;;6.08;91.40;100681.25;102745;1321;25563;-60
2021/12/19 03:29:20;;;;;;;13.30;3.60;;;;;;;6.10;91.07;100678.03;102749;1312;25317;-60
2021/12/19 03:31:51;;;;;;;14.00;2.60;;;;;;;6.11;90.94;100674.35;102864;1315;22573;-61
2021/12/19 03:34:22;;;;;;;14.40;4.30;;;;;;;6.13;90.79;100667.48;102818;1312;24318;-59
2021/12/19 03:36:53;;;;;;;14.50;4.90;;;;;;;6.14;90.57;100662.23;102771;1318;23273;-60
2021/12/19 03:39:36;;;;;;;16.00;4.10;;;;;;;6.15;90.69;100665.91;102751;1312;22773;-59
2021/12/19 03:42:08;;;;;;;16.90;4.50;;;;;;;6.16;90.66;100660.67;103000;1315;22564;-59
2021/12/19 03:44:39;;;;;;;11.70;3.30;;;;;;;6.16;90.13;100650.99;102861;1319;23140;-62
2021/12/19 03:47:10;;;;;;;16.90;4.80;;;;;;;6.17;90.29;100644.23;102727;1317;22593;-60
2021/12/19 03:49:46;;;;;;;16.60;3.40;;;;;;;6.18;90.24;100631.55;102756;1316;25233;-60
2021/12/19 03:52:17;;;;;;;19.00;4.00;;;;;;;6.17;89.93;100624.36;102880;1316;22583;-61
2021/12/19 03:54:48;;;;;;;13.00;3.70;;;;;;;6.17;89.72;100622.14;102897;1312;23615;-61
2021/12/19 03:57:19;;;;;;;12.00;3.10;;;;;;;6.17;89.47;100627.52;102711;1316;22579;-59
2021/12/19 03:59:50;;;;;;;9.50;2.80;;;;;;;6.17;89.24;100624.52;102702;1316;22568;-60
2021/12/19 04:02:26;;;;;;;13.70;2.40;;;;;;;6.17;88.94;100622.38;102961;1313;22599;-59
2021/12/19 04:05:01;;;;;;;13.00;2.40;;;;;;;6.18;88.19;100613.81;102961;1312;26671;-59
2021/12/19 04:07:33;;;;;;;13.30;2.60;;;;;;;6.18;88.10;100617.36;102891;1316;25413;-60
2021/12/19 04:10:07;;;;;;;7.60;1.50;;;;;;;6.19;87.83;100614.08;102895;1317;25255;-60
2021/12/19 04:12:37;;;;;;;8.60;1.80;;;;;;;6.19;87.59;100610.11;102895;1318;22816;-60
2021/12/19 04:15:11;;;;;;;7.00;1.50;;;;;;;6.20;87.46;100609.13;102674;1316;25365;-61
2021/12/19 04:17:42;;;;;;;10.60;1.60;;;;;;;6.20;87.55;100604.14;102847;1320;23977;-61
2021/12/19 04:20:15;;;;;;;5.80;1.30;;;;;;;6.20;86.88;100603.04;102931;1317;24318;-60
2021/12/19 04:22:47;;;;;;;10.00;1.50;;;;;;;6.20;86.86;100599.23;102968;1319;23247;-59
2021/12/19 04:25:19;;;;;;;11.00;1.50;;;;;;;6.21;86.50;100597.16;102717;1318;25307;-60
2021/12/19 04:27:51;;;;;;;11.60;1.50;;;;;;;6.20;86.63;100597.73;102830;1315;24424;-59
2021/12/19 04:30:25;;;;;;;13.20;3.00;;;;;;;6.19;86.53;100599.58;102728;1313;22672;-59
2021/12/19 04:33:00;;;;;;;9.00;1.40;;;;;;;6.18;86.31;100601.44;103033;1318;25858;-60
2021/12/19 04:35:34;;;;;;;11.20;1.80;;;;;;;6.18;86.30;100604.94;103206;1312;22615;-60
2021/12/19 04:41:20;;;;;;;10.60;1.50;;;;;;;6.16;86.19;100616.23;102808;1318;24343;-60
2021/12/19 04:44:29;;;;;;;16.30;2.70;;;;;;;6.16;86.03;100609.44;102879;1313;22805;-59
2021/12/19 04:58:50;;;;;;;16.50;2.20;;;;;;;6.13;85.72;100598.34;102394;1318;25395;-59
2021/12/19 05:01:41;;;;;;;10.40;1.60;;;;;;;6.13;85.36;100592.09;102483;1319;22582;-60
2021/12/19 05:04:25;;;;;;;13.40;2.60;;;;;;;6.12;85.68;100592.11;102416;1320;22596;-60
2021/12/19 05:15:26;;;;;;;9.60;1.80;;;;;;;6.11;85.52;100584.79;101874;1328;25144;-58
2021/12/19 05:18:02;;;;;;;12.50;2.10;;;;;;;6.11;85.36;100588.09;101787;1330;22813;-60
2021/12/19 05:20:34;;;;;;;11.50;1.90;;;;;;;6.11;85.34;100589.21;102052;1330;22589;-59
2021/12/19 05:23:12;;;;;;;7.10;1.30;;;;;;;6.11;85.13;100597.69;101794;1328;24799;-60
2021/12/19 05:25:43;;;;;;;8.00;1.80;;;;;;;6.11;85.39;100592.06;102265;1324;25267;-60
2021/12/19 05:28:14;;;;;;;7.90;1.30;;;;;;;6.11;85.37;100597.99;102328;1319;25301;-60
2021/12/19 05:30:45;;;;;;;7.40;1.50;;;;;;;6.11;85.28;100599.66;102256;1325;25442;-58
2021/12/19 05:33:16;;;;;;;10.20;2.50;;;;;;;6.11;85.35;100593.58;102304;1321;22555;-60
2021/12/19 05:36:07;;;;;;;9.10;1.90;;;;;;;6.11;85.37;100598.80;102463;1326;22789;-60
2021/12/19 05:47:02;;;;;;;7.90;1.90;;;;;;;6.11;84.41;100591.96;102301;1319;25357;-59
2021/12/19 05:49:34;;;;;;;10.00;1.20;;;;;;;6.11;84.28;100587.70;102844;1316;25397;-60
2021/12/19 05:52:06;;;;;;;10.40;1.60;;;;;;;6.12;84.45;100582.84;102940;1318;24215;-61
2021/12/19 05:54:37;;;;;;;10.40;2.00;;;;;;;6.12;84.87;100577.23;102881;1315;22682;-60
2021/12/19 05:57:09;;;;;;;16.50;2.30;;;;;;;6.11;84.65;100579.23;102701;1318;22677;-59
2021/12/19 05:59:40;;;;;;;10.00;1.50;;;;;;;6.11;84.82;100581.99;102862;1318;24310;-60
2021/12/19 06:02:24;;;;;;;15.00;1.80;;;;;;;6.11;84.41;100578.60;102787;1318;26588;-61
2021/12/19 06:04:54;;;;;;;7.80;1.50;;;;;;;6.13;83.67;100571.17;103449;1315;22589;-59
2021/12/19 06:07:25;;;;;;;9.90;1.50;;;;;;;6.14;84.22;100563.13;103348;1313;24446;-59
2021/12/19 06:09:59;;;;;;;9.20;1.70;;;;;;;6.15;83.49;100563.35;103348;1312;22666;-60
2021/12/19 06:12:31;;;;;;;10.60;2.20;;;;;;;6.16;83.55;100566.48;105647;1319;22556;-58
2021/12/19 06:15:02;;;;;;;9.40;1.40;;;;;;;6.17;83.34;100571.70;103345;1312;25394;-59
2021/12/19 06:17:34;;;;;;;7.80;1.30;;;;;;;6.19;83.35;100569.48;103287;1317;24125;-60
2021/12/19 06:20:06;;;;;;;7.50;1.10;;;;;;;6.19;83.57;100574.30;103321;1312;25744;-60
2021/12/19 06:22:37;;;;;;;9.30;1.50;;;;;;;6.20;83.70;100575.09;106151;1313;22560;-60
2021/12/19 06:25:10;;;;;;;7.90;1.60;;;;;;;6.20;83.72;100585.48;103143;1316;24274;-59
2021/12/19 06:27:41;;;;;;;10.30;2.10;;;;;;;6.19;84.11;100580.40;103321;1316;24195;-60
2021/12/19 06:30:13;;;;;;;12.20;1.60;;;;;;;6.18;83.88;100587.02;103195;1314;23010;-59
2021/12/19 06:32:44;;;;;;;6.80;1.50;;;;;;;6.18;84.08;100581.00;103344;1312;22577;-60
2021/12/19 06:35:18;;;;;;;9.70;1.60;;;;;;;6.17;84.12;100585.30;103323;1311;22597;-61
2021/12/19 06:37:50;;;;;;;8.90;1.80;;;;;;;6.16;84.53;100580.05;103299;1315;24244;-60
2021/12/19 06:40:23;;;;;;;11.90;1.70;;;;;;;6.13;84.84;100565.54;103307;1313;26062;-60
2021/12/19 06:42:54;;;;;;;10.20;1.60;;;;;;;6.11;84.94;100566.66;103244;1317;23036;-58
2021/12/19 06:45:24;;;;;;;10.80;1.90;;;;;;;6.09;84.93;100565.05;103300;1317;22641;-60
2021/12/19 06:47:55;;;;;;;9.80;1.30;;;;;;;6.07;85.01;100552.27;103109;1312;22633;-60
2021/12/19 06:50:26;;;;;;;6.40;1.20;;;;;;;6.05;85.11;100541.08;103218;1313;25367;-60
2021/12/19 06:52:57;;;;;;;12.70;1.50;;;;;;;6.04;85.16;100535.17;103114;1316;22615;-60
2021/12/19 06:55:28;;;;;;;11.00;1.90;;;;;;;6.03;84.97;100542.58;103241;1317;22528;-59
2021/12/19 06:57:59;;;;;;;10.20;1.40;;;;;;;6.03;84.82;100545.19;103141;1317;22552;-60
2021/12/19 07:00:30;;;;;;;8.50;1.00;;;;;;;6.02;84.53;100552.48;103237;1312;22565;-59
2021/12/19 07:03:01;;;;;;;11.40;1.70;;;;;;;6.04;84.48;100553.80;103248;1318;24507;-59
2021/12/19 07:05:32;;;;;;;9.00;1.60;;;;;;;6.03;84.31;100560.45;103245;1313;25459;-60
2021/12/19 07:08:03;;;;;;;10.80;1.10;;;;;;;6.05;84.52;100556.36;103136;1313;22592;-59
2021/12/19 07:10:34;;;;;;;5.20;0.90;;;;;;;6.05;84.45;100552.64;103194;1312;24240;-60
2021/12/19 07:13:05;;;;;;;10.70;1.30;;;;;;;6.04;84.47;100549.49;103236;1309;22574;-60
2021/12/19 07:15:36;;;;;;;9.00;1.60;;;;;;;6.05;84.39;100543.85;103360;1314;22577;-59
2021/12/19 07:18:08;;;;;;;8.10;1.40;;;;;;;6.04;84.47;100544.51;103303;1315;22605;-60
2021/12/19 07:20:42;;;;;;;4.10;0.90;;;;;;;6.03;84.54;100548.19;103276;1319;22808;-59
2021/12/19 07:23:16;;;;;;;8.50;1.20;;;;;;;6.02;84.49;100537.61;103278;1316;22661;-64
2021/12/19 07:25:48;;;;;;;13.50;1.50;;;;;;;6.01;84.52;100535.26;103470;1316;22637;-59
2021/12/19 07:28:19;;;;;;;5.70;0.90;;;;;;;6.00;84.64;100527.05;103643;1316;23209;-61
2021/12/19 07:30:50;;;;;;;7.70;1.50;;;;;;;6.00;84.96;100529.61;103181;1312;22667;-60
2021/12/19 07:33:21;;;;;;;5.30;1.90;;;;;;;5.98;85.13;100530.04;103444;1313;22640;-59
2021/12/19 07:35:53;;;;;;;7.40;1.00;;;;;;;5.95;85.28;100520.30;103489;1317;22602;-60
2021/12/19 07:38:30;;;;;;;9.30;1.10;;;;;;;5.93;85.43;100524.48;103589;1319;22640;-59
2021/12/19 07:41:02;;;;;;;6.20;1.20;;;;;;;5.90;85.56;100518.41;103332;1312;22589;-61
2021/12/19 07:43:33;;;;;;;8.60;1.00;;;;;;;5.88;85.65;100518.63;103386;1314;22578;-59
2021/12/19 07:46:04;;;;;;;9.50;1.10;;;;;;;5.87;85.60;100517.86;103337;1314;22590;-59
2021/12/19 07:48:35;;;;;;;9.00;1.10;;;;;;;5.87;85.54;100512.17;103561;1316;24134;-59
2021/12/19 07:51:06;;;;;;;5.80;0.90;;;;;;;5.87;85.57;100508.91;103371;1315;24971;-58
2021/12/19 07:53:37;;;;;;;8.90;1.10;;;;;;;5.87;85.39;100510.09;103522;1318;22882;-59
2021/12/19 07:56:08;;;;;;;7.40;1.10;;;;;;;5.89;85.38;100512.58;103315;1317;22638;-59
2021/12/19 07:58:40;;;;;;;6.40;1.40;;;;;;;5.90;85.23;100516.45;103266;1317;22665;-63
2021/12/19 08:01:11;;;;;;;6.40;1.10;;;;;;;5.91;85.34;100512.20;102910;1317;22663;-64
2021/12/19 08:03:42;;;;;;;7.70;1.20;;;;;;;5.92;85.31;100523.34;103054;1313;25407;-60
2021/12/19 08:06:13;;;;;;;5.50;1.20;;;;;;;5.93;85.27;100520.23;102735;1317;24225;-62
2021/12/19 08:08:50;;;;;;;4.40;1.00;;;;;;;5.93;85.26;100518.02;103000;1309;22593;-60
2021/12/19 08:14:12;;;;;;;4.90;1.00;;;;;;;5.93;85.34;100504.88;102803;1312;24250;-60
2021/12/19 08:16:44;;;;;;;5.30;1.10;;;;;;;5.92;85.50;100503.63;103282;1314;22580;-61
2021/12/19 08:19:16;;;;;;;43.10;15.20;;;;;;;5.91;85.56;100505.09;102789;1313;22716;-60
2021/12/19 08:21:48;;;;;;;17.10;6.30;;;;;;;5.90;85.61;100507.66;102983;1317;22590;-61
2021/12/19 08:24:19;;;;;;;10.40;2.00;;;;;;;5.89;85.65;100510.14;103069;1316;25232;-61
2021/12/19 08:26:50;;;;;;;9.50;1.50;;;;;;;5.88;85.84;100510.40;103568;1319;24234;-66
2021/12/19 08:29:22;;;;;;;3.50;0.90;;;;;;;5.88;85.58;100500.27;103625;1316;22558;-64
2021/12/19 08:31:53;;;;;;;7.90;1.10;;;;;;;5.88;85.46;100491.71;102741;1315;25340;-64
2021/12/19 08:34:32;;;;;;;7.90;1.00;;;;;;;5.89;85.48;100494.69;103344;1314;23511;-60
2021/12/19 08:37:07;;;;;;;7.10;1.40;;;;;;;5.89;85.50;100494.05;103405;1312;22578;-62
2021/12/19 08:39:41;;;;;;;7.10;1.30;;;;;;;5.89;85.69;100489.55;103075;1316;24283;-59
2021/12/19 08:42:13;;;;;;;11.40;1.90;;;;;;;5.89;85.67;100497.08;102788;1318;22840;-65
2021/12/19 08:44:44;;;;;;;16.70;2.60;;;;;;;5.88;85.76;100496.14;102812;1317;24256;-64
2021/12/19 08:47:16;;;;;;;6.90;1.30;;;;;;;5.88;85.86;100495.28;102969;1309;25365;-65
2021/12/19 08:49:47;;;;;;;8.30;1.30;;;;;;;5.86;86.02;100493.59;103069;1312;22841;-63
2021/12/19 08:52:18;;;;;;;7.00;1.40;;;;;;;5.83;86.15;100488.35;102882;1313;22557;-60
2021/12/19 08:54:49;;;;;;;4.70;0.90;;;;;;;5.81;86.25;100491.16;102831;1313;24276;-58
2021/12/19 08:57:21;;;;;;;9.10;1.20;;;;;;;5.80;86.18;100488.20;103024;1316;22570;-61
2021/12/19 08:59:52;;;;;;;8.70;1.10;;;;;;;5.79;86.12;100488.61;102903;1317;22631;-61
2021/12/19 09:02:23;;;;;;;8.50;1.20;;;;;;;5.78;86.31;100479.15;102983;1313;23121;-63
2021/12/19 09:04:54;;;;;;;7.40;1.20;;;;;;;5.77;86.37;100480.36;102851;1317;22658;-61
2021/12/19 09:07:25;;;;;;;10.60;1.80;;;;;;;5.76;86.43;100473.98;102844;1317;22637;-57
2021/12/19 09:09:56;;;;;;;7.80;1.10;;;;;;;5.75;86.45;100476.36;103186;1316;26694;-60
2021/12/19 09:12:27;;;;;;;6.20;1.30;;;;;;;5.74;86.51;100480.67;102959;1313;22591;-57
2021/12/19 09:14:58;;;;;;;9.30;1.20;;;;;;;5.73;86.69;100486.16;103033;1313;25920;-58
2021/12/19 09:17:29;;;;;;;5.40;1.10;;;;;;;5.72;86.81;100484.00;103255;1319;22587;-59
2021/12/19 09:20:00;;;;;;;9.50;1.30;;;;;;;5.69;86.91;100486.05;103176;1312;25252;-59
2021/12/19 09:22:32;;;;;;;10.80;1.40;;;;;;;5.68;87.11;100492.48;103178;1315;25249;-57
2021/12/19 09:25:05;;;;;;;8.30;1.60;;;;;;;5.66;87.23;100489.00;103194;1312;22776;-58
2021/12/19 09:27:38;;;;;;;10.00;1.60;;;;;;;5.63;87.36;100484.66;103280;1318;23373;-59
2021/12/19 09:30:11;;;;;;;8.10;1.40;;;;;;;5.62;87.66;100489.83;102936;1313;22958;-58
2021/12/19 09:32:42;;;;;;;8.20;1.40;;;;;;;5.59;87.58;100479.31;102919;1319;25357;-59
2021/12/19 09:35:16;;;;;;;5.30;1.20;;;;;;;5.58;87.68;100479.19;102920;1316;25730;-59
2021/12/19 09:37:46;;;;;;;4.80;1.20;;;;;;;5.56;87.79;100479.81;103577;1317;22593;-58
2021/12/19 09:40:21;;;;;;;5.00;1.00;;;;;;;5.55;87.81;100486.08;102742;1317;23117;-58
2021/12/19 09:43:01;;;;;;;11.40;2.50;;;;;;;5.54;87.78;100479.63;102678;1315;22645;-58
2021/12/19 09:45:33;;;;;;;6.60;0.80;;;;;;;5.53;87.56;100474.17;102985;1312;25383;-58
2021/12/19 09:48:05;;;;;;;4.50;0.80;;;;;;;5.53;87.65;100469.37;103422;1319;22576;-59
2021/12/19 09:50:37;;;;;;;4.60;0.70;;;;;;;5.51;87.47;100469.41;102997;1319;22587;-61
2021/12/19 09:53:09;;;;;;;3.30;0.70;;;;;;;5.50;87.49;100468.73;104079;1318;26538;-64
2021/12/19 09:55:45;;;;;;;4.80;0.70;;;;;;;5.50;87.33;100468.34;103182;1312;22558;-60
2021/12/19 09:58:16;;;;;;;6.50;0.80;;;;;;;5.50;87.40;100461.76;103294;1317;22610;-60
2021/12/19 10:00:53;;;;;;;4.30;0.60;;;;;;;5.51;87.38;100456.98;103158;1318;22577;-60
2021/12/19 10:03:24;;;;;;;5.40;0.70;;;;;;;5.53;87.27;100450.55;103264;1317;25932;-58
2021/12/19 10:06:21;;;;;;;4.00;0.80;;;;;;;5.55;87.21;100446.11;103098;1313;24241;-57
2021/12/19 10:11:59;;;;;;;3.50;0.60;;;;;;;5.64;86.89;100444.27;99738;1351;545033;-61
2021/12/19 10:14:33;;;;;;;5.20;0.90;;;;;;;5.65;86.33;100430.64;102598;1324;25294;-61
2021/12/19 10:17:07;;;;;;;5.40;0.50;;;;;;;5.68;85.39;100432.25;102778;1320;23865;-61
2021/12/19 10:19:49;;;;;;;1.80;0.40;;;;;;;5.71;84.48;100427.25;102688;1322;22563;-61
2021/12/19 10:22:33;;;;;;;3.10;0.20;;;;;;;5.71;83.95;100422.36;102446;1324;22593;-61
2021/12/19 10:25:30;;;;;;;1.80;0.20;;;;;;;5.70;84.27;100416.14;102417;1326;318346;-60
2021/12/19 10:28:19;;;;;;;3.80;0.40;;;;;;;5.70;84.33;100406.02;103106;1313;25035;-59
2021/12/19 10:30:50;;;;;;;2.00;0.30;;;;;;;5.70;84.08;100405.39;103101;1313;25495;-60
2021/12/19 10:33:23;;;;;;;2.90;0.40;;;;;;;5.69;84.01;100405.40;102988;1316;22551;-59
2021/12/19 10:35:56;;;;;;;2.90;0.40;;;;;;;5.67;84.23;100412.43;103169;1316;25316;-57
2021/12/19 10:38:30;;;;;;;2.90;0.50;;;;;;;5.66;84.91;100400.06;103236;1316;22573;-62
2021/12/19 10:41:04;;;;;;;1.50;0.40;;;;;;;5.64;85.03;100392.90;103106;1316;22617;-63
2021/12/19 10:43:43;;;;;;;2.50;0.60;;;;;;;5.62;84.95;100386.23;103482;1314;25248;-59
2021/12/19 10:46:15;;;;;;;3.30;0.50;;;;;;;5.62;84.94;100384.20;103078;1310;22567;-59
2021/12/19 10:48:52;;;;;;;3.20;0.60;;;;;;;5.62;85.09;100377.15;103515;1316;24387;-64
2021/12/19 10:51:48;;;;;;;3.70;0.70;;;;;;;5.62;85.22;100372.39;103235;1316;26007;-60
2021/12/19 10:54:20;;;;;;;6.30;0.80;;;;;;;5.63;85.42;100367.13;103378;1316;22659;-61
2021/12/19 10:57:06;;;;;;;4.20;0.90;;;;;;;5.63;85.45;100370.92;103681;1317;22677;-63
2021/12/19 10:59:38;;;;;;;7.60;1.00;;;;;;;5.61;85.87;100359.23;103608;1316;23128;-63
2021/12/19 11:02:10;;;;;;;5.20;0.90;;;;;;;5.57;86.23;100368.04;103529;1316;24230;-61
2021/12/19 11:04:44;;;;;;;7.70;1.60;;;;;;;5.54;86.56;100355.48;103550;1316;24345;-62
2021/12/19 11:07:24;;;;;;;5.80;1.00;;;;;;;5.52;86.62;100351.19;106041;1316;22574;-62
2021/12/19 11:09:55;;;;;;;4.40;1.10;;;;;;;5.53;86.54;100345.38;103596;1310;24260;-61
2021/12/19 11:12:26;;;;;;;8.50;1.50;;;;;;;5.55;86.53;100342.78;104028;1310;25552;-61
2021/12/19 11:14:58;;;;;;;9.60;1.50;;;;;;;5.56;86.63;100342.33;103567;1314;24179;-61
2021/12/19 11:17:30;;;;;;;6.30;1.10;;;;;;;5.59;86.55;100344.80;103824;1310;26166;-61
2021/12/19 11:20:03;;;;;;;7.50;1.30;;;;;;;5.59;86.67;100343.55;105410;1315;25256;-62
2021/12/19 11:22:35;;;;;;;8.30;1.40;;;;;;;5.58;86.91;100339.36;103820;1310;23353;-61
2021/12/19 11:25:11;;;;;;;8.50;1.60;;;;;;;5.56;87.05;100332.30;103803;1309;22665;-60
2021/12/19 11:27:47;;;;;;;6.40;1.00;;;;;;;5.52;87.29;100321.59;103539;1313;22735;-59
2021/12/19 11:30:19;;;;;;;5.50;0.80;;;;;;;5.49;87.34;100308.86;103232;1313;22600;-60
2021/12/19 11:33:11;;;;;;;4.00;0.70;;;;;;;5.47;87.44;100311.40;103291;1314;22587;-60
2021/12/19 11:35:47;;;;;;;6.40;0.90;;;;;;;5.45;87.39;100317.70;103402;1316;22551;-61
2021/12/19 11:38:24;;;;;;;3.60;0.60;;;;;;;5.44;87.39;100314.40;103201;1313;24283;-59
2021/12/19 11:40:56;;;;;;;5.30;0.90;;;;;;;5.43;87.39;100308.58;103536;1310;24329;-60
2021/12/19 11:43:42;;;;;;;10.80;1.20;;;;;;;5.43;87.41;100308.60;103339;1310;22706;-61
2021/12/19 11:46:19;;;;;;;5.40;1.10;;;;;;;5.41;87.48;100305.39;103203;1310;22593;-62
2021/12/19 11:49:16;;;;;;;4.60;1.00;;;;;;;5.42;87.61;100305.45;103229;1313;22563;-60
2021/12/19 11:51:48;;;;;;;5.70;0.80;;;;;;;5.42;87.38;100300.45;103157;1313;26141;-59
2021/12/19 11:54:22;;;;;;;3.80;0.90;;;;;;;5.44;87.36;100295.02;103321;1313;24328;-60
2021/12/19 11:57:08;;;;;;;7.30;0.80;;;;;;;5.47;87.11;100286.14;103328;1313;22712;-57
2021/12/19 11:59:40;;;;;;;3.50;0.60;;;;;;;5.49;86.81;100278.24;103307;1314;25965;-59
2021/12/19 12:02:27;;;;;;;5.90;0.90;;;;;;;5.51;86.81;100283.88;103189;1316;24297;-60
2021/12/19 12:05:23;;;;;;;4.40;0.70;;;;;;;5.54;86.80;100270.19;103416;1314;22606;-58
2021/12/19 12:08:20;;;;;;;7.00;0.80;;;;;;;5.56;86.63;100259.83;103471;1313;24101;-60
2021/12/19 12:11:12;;;;;;;5.10;0.90;;;;;;;5.58;86.51;100256.67;102666;1316;26566;-62
2021/12/19 12:13:43;;;;;;;5.90;0.80;;;;;;;5.58;86.58;100259.68;102833;1316;22603;-62
2021/12/19 12:16:43;;;;;;;4.10;0.70;;;;;;;5.58;86.82;100261.66;102629;1321;22770;-59
2021/12/19 12:19:14;;;;;;;4.20;1.10;;;;;;;5.56;87.03;100248.19;102835;1327;25411;-58
2021/12/19 12:21:49;;;;;;;5.60;0.70;;;;;;;5.57;87.06;100250.52;102867;1323;25286;-58
2021/12/19 12:24:20;;;;;;;4.90;0.80;;;;;;;5.58;86.85;100250.11;103007;1325;25282;-59
2021/12/19 12:26:59;;;;;;;6.60;1.00;;;;;;;5.59;86.73;100243.29;102557;1327;22611;-58
2021/12/19 12:29:32;;;;;;;5.60;1.00;;;;;;;5.60;86.65;100240.33;102727;1325;22702;-60
2021/12/19 12:32:06;;;;;;;3.20;0.70;;;;;;;5.61;86.55;100240.83;103081;1323;22686;-58
2021/12/19 12:34:39;;;;;;;3.80;0.70;;;;;;;5.63;86.46;100237.70;102800;1321;24640;-57
2021/12/19 12:37:14;;;;;;;5.80;0.60;;;;;;;5.64;85.85;100242.39;102851;1324;23996;-60
2021/12/19 12:39:46;;;;;;;5.40;0.50;;;;;;;5.66;85.96;100236.25;102773;1320;25469;-58
2021/12/19 12:42:18;;;;;;;4.30;0.40;;;;;;;5.67;85.80;100227.50;102687;1324;22758;-61
2021/12/19 12:44:49;;;;;;;6.40;0.70;;;;;;;5.68;85.90;100218.98;102950;1325;22649;-60
2021/12/19 12:47:21;;;;;;;4.50;0.90;;;;;;;5.68;85.81;100216.86;102776;1317;23011;-61